Time;durP1;ratioP1;P1;durP2;ratioP2;P2;SDS_P1;SDS_P2;PMS_P1;PMS_P2;Temp;Humidity;BMP_temperature;BMP_pressure;BME280_temperature;BME280_humidity;BME280_pressure;Samples;Min_cycle;Max_cycle;Signal;HPM_P1;HPM_P2
2022/03/22 00:00:36;;;;;;;56.42;32.55;;;;;;;5.99;100.00;67442.94;4968449;28;20050;-83
2022/03/22 00:03:02;;;;;;;56.58;31.75;;;;;;;5.99;100.00;67440.31;4981675;28;20046;-83
2022/03/22 00:05:27;;;;;;;54.75;32.60;;;;;;;6.01;100.00;67443.13;4977769;28;20089;-84
2022/03/22 00:07:53;;;;;;;60.25;34.63;;;;;;;5.95;100.00;67441.63;4962273;28;20553;-83
2022/03/22 00:10:19;;;;;;;58.22;34.63;;;;;;;6.00;100.00;67441.44;4985043;28;20733;-83
2022/03/22 00:22:58;;;;;;;60.58;36.85;;;;;;;5.92;100.00;67432.91;4952434;28;20061;-83
2022/03/22 00:25:24;;;;;;;56.40;35.17;;;;;;;5.88;100.00;67434.25;4948868;28;20051;-83
2022/03/22 00:27:57;;;;;;;60.97;36.42;;;;;;;;;;4976537;28;20059;-83
2022/03/22 00:30:25;;;;;;;62.08;37.22;;;;;;;5.85;100.00;67430.31;4951787;28;20130;-83
2022/03/22 00:32:54;;;;;;;65.73;38.83;;;;;;;5.80;100.00;67419.38;4964016;28;20042;-83
2022/03/22 00:35:23;;;;;;;57.50;35.40;;;;;;;5.76;100.00;67417.50;4966257;28;20518;-83
2022/03/22 00:37:50;;;;;;;59.03;38.60;;;;;;;5.77;100.00;67419.19;4969641;28;20565;-83
2022/03/22 00:40:17;;;;;;;64.03;39.15;;;;;;;5.72;100.00;67413.53;4970120;28;20062;-83
2022/03/22 00:42:46;;;;;;;59.55;37.40;;;;;;;5.68;100.00;67405.81;4967663;28;20039;-83
2022/03/22 00:45:12;;;;;;;57.20;34.45;;;;;;;5.59;100.00;67396.75;4967572;28;20042;-83
2022/03/22 00:47:38;;;;;;;61.42;37.60;;;;;;;5.63;100.00;67406.00;4974467;28;20046;-83
2022/03/22 00:50:04;;;;;;;58.75;35.90;;;;;;;5.63;100.00;67401.28;4965725;28;20038;-83
2022/03/22 00:52:29;;;;;;;58.88;36.83;;;;;;;5.62;100.00;67405.44;4965357;28;20047;-83
2022/03/22 00:54:55;;;;;;;60.78;37.10;;;;;;;5.57;100.00;67399.22;4961359;28;20097;-83
2022/03/22 00:57:20;;;;;;;60.60;35.72;;;;;;;5.47;100.00;67383.22;4972873;28;20054;-83
2022/03/22 01:00:05;;;;;;;64.00;37.80;;;;;;;;;;4974373;28;20089;-83
2022/03/22 01:02:35;;;;;;;62.00;38.08;;;;;;;5.50;100.00;67389.25;4954637;28;20091;-83
2022/03/22 01:05:04;;;;;;;63.20;37.92;;;;;;;5.53;100.00;67392.63;4973304;28;20031;-83
2022/03/22 01:07:29;;;;;;;59.33;35.28;;;;;;;5.45;100.00;67383.03;4973483;28;20093;-83
2022/03/22 01:09:55;;;;;;;61.92;36.08;;;;;;;5.40;100.00;67375.84;4972843;28;20051;-83
2022/03/22 01:12:21;;;;;;;64.95;36.42;;;;;;;;;;4957369;28;20081;-83
2022/03/22 01:14:46;;;;;;;59.22;35.88;;;;;;;;;;4956793;28;20050;-83
2022/03/22 01:17:11;;;;;;;57.60;33.10;;;;;;;;;;4973639;28;20504;-83
2022/03/22 01:19:39;;;;;;;61.00;36.92;;;;;;;5.39;100.00;67380.00;4974819;28;20707;-83
2022/03/22 01:22:05;;;;;;;61.88;36.75;;;;;;;5.36;100.00;67373.41;4972352;28;20047;-83
2022/03/22 01:24:31;;;;;;;63.63;36.05;;;;;;;5.32;100.00;67368.88;4972789;28;20253;-83
2022/03/22 01:26:56;;;;;;;58.38;34.13;;;;;;;5.30;100.00;67366.66;4973457;28;20071;-83
2022/03/22 01:29:22;;;;;;;64.95;34.58;;;;;;;5.28;100.00;67361.75;4975790;28;20082;-83
2022/03/22 01:31:49;;;;;;;60.00;33.97;;;;;;;5.32;100.00;67371.53;4974674;28;20409;-83
2022/03/22 01:34:14;;;;;;;57.28;36.17;;;;;;;5.30;100.00;67366.66;4971767;28;20543;-83
2022/03/22 01:36:40;;;;;;;58.55;36.53;;;;;;;5.29;100.00;67366.06;4971644;28;20043;-83
2022/03/22 01:39:05;;;;;;;64.10;36.53;;;;;;;5.24;100.00;67362.50;4955708;28;20050;-83
2022/03/22 01:41:31;;;;;;;63.47;37.35;;;;;;;5.17;100.00;67355.72;4973875;28;20046;-82
2022/03/22 01:43:56;;;;;;;61.88;35.28;;;;;;;5.13;100.00;67345.94;4955648;28;20053;-83
2022/03/22 01:46:24;;;;;;;51.80;33.92;;;;;;;5.12;100.00;67347.44;4974510;28;20065;-83
2022/03/22 01:48:50;;;;;;;61.80;35.25;;;;;;;5.07;100.00;67339.16;4948175;28;20486;-84
2022/03/22 01:51:17;;;;;;;61.65;36.10;;;;;;;5.05;100.00;67338.97;4966622;28;20560;-84
2022/03/22 01:53:43;;;;;;;62.17;37.72;;;;;;;;;;4969088;28;20418;-83
2022/03/22 01:56:08;;;;;;;61.72;38.75;;;;;;;5.04;100.00;67335.75;4969751;28;20054;-83
2022/03/22 01:58:34;;;;;;;62.08;38.30;;;;;;;4.97;100.00;67330.47;4972234;28;20054;-84
2022/03/22 02:06:32;;;;;;;64.68;38.25;;;;;;;4.97;100.00;67328.41;4954286;28;20123;-84
2022/03/22 02:08:57;;;;;;;64.80;38.40;;;;;;;4.94;100.00;67329.72;4971009;28;20042;-83
2022/03/22 02:11:23;;;;;;;60.22;33.20;;;;;;;4.84;100.00;67318.44;4970109;28;20047;-84
2022/03/22 02:13:48;;;;;;;64.47;37.88;;;;;;;4.89;100.00;67324.66;4952793;28;20065;-84
2022/03/22 02:16:14;;;;;;;61.63;37.38;;;;;;;4.88;100.00;67317.69;4970582;28;20122;-84
2022/03/22 02:18:40;;;;;;;60.47;36.25;;;;;;;4.88;100.00;67322.97;4953192;28;20074;-84
2022/03/22 02:21:06;;;;;;;61.13;36.67;;;;;;;4.89;100.00;67319.38;4971380;28;20055;-84
2022/03/22 02:23:50;;;;;;;60.22;35.55;;;;;;;4.86;100.00;67318.63;4968151;28;20043;-84
2022/03/22 02:26:16;;;;;;;56.42;33.92;;;;;;;4.88;100.00;67317.69;4969789;28;20062;-84
2022/03/22 02:28:43;;;;;;;58.47;34.40;;;;;;;4.84;100.00;67318.44;4953271;28;20047;-84
2022/03/22 02:31:09;;;;;;;56.30;34.38;;;;;;;4.80;100.00;67311.28;4946130;28;20126;-84
2022/03/22 02:33:34;;;;;;;53.47;33.47;;;;;;;4.71;100.00;67302.25;4969682;28;20138;-84
2022/03/22 02:36:00;;;;;;;58.10;34.85;;;;;;;4.75;100.00;67306.22;4970544;28;20048;-84
2022/03/22 02:38:26;;;;;;;56.30;32.22;;;;;;;4.73;100.00;67307.16;4960997;28;20127;-84
2022/03/22 02:40:51;;;;;;;55.35;33.17;;;;;;;4.72;100.00;67300.19;4970459;28;20046;-84
2022/03/22 02:43:17;;;;;;;58.53;35.80;;;;;;;4.73;100.00;67301.88;4964177;28;20043;-84
2022/03/22 02:45:42;;;;;;;55.10;33.10;;;;;;;4.64;100.00;67294.34;4970659;28;20053;-84
2022/03/22 02:48:07;;;;;;;57.25;33.53;;;;;;;4.62;100.00;67294.72;4968484;28;20101;-84
2022/03/22 02:50:33;;;;;;;54.42;34.53;;;;;;;4.66;100.00;67298.66;4970514;28;20065;-84
2022/03/22 02:53:00;;;;;;;59.42;35.15;;;;;;;4.60;100.00;67289.81;4967671;28;20510;-84
2022/03/22 02:55:26;;;;;;;61.38;34.40;;;;;;;4.64;100.00;67291.16;4953828;28;20039;-84
2022/03/22 02:57:51;;;;;;;55.17;33.47;;;;;;;4.64;100.00;67291.72;4951739;28;20112;-84
2022/03/22 03:00:17;;;;;;;59.03;33.13;;;;;;;4.57;100.00;67288.50;4971683;28;20058;-83
2022/03/22 03:02:45;;;;;;;52.35;31.23;;;;;;;4.58;100.00;67284.94;4963753;28;20046;-84
2022/03/22 03:05:11;;;;;;;51.03;30.10;;;;;;;4.53;100.00;67289.84;4957282;28;21174;-84
2022/03/22 03:07:37;;;;;;;57.72;32.50;;;;;;;4.55;100.00;67281.56;4969596;28;20038;-84
2022/03/22 03:10:04;;;;;;;54.75;32.08;;;;;;;4.54;100.00;67285.69;4961854;28;20046;-84
2022/03/22 03:12:30;;;;;;;55.97;34.45;;;;;;;4.51;100.00;67279.66;4969440;28;20219;-83
2022/03/22 03:14:55;;;;;;;54.40;33.33;;;;;;;4.58;100.00;67289.66;4964334;28;20555;-83
2022/03/22 03:17:20;;;;;;;57.20;34.05;;;;;;;4.57;100.00;67288.50;4968301;28;20039;-83
2022/03/22 03:19:46;;;;;;;56.83;33.67;;;;;;;4.47;100.00;67272.53;4969530;28;20047;-83
2022/03/22 03:22:11;;;;;;;53.42;31.77;;;;;;;4.57;100.00;67285.88;4965617;28;20512;-83
2022/03/22 03:24:36;;;;;;;56.40;33.95;;;;;;;4.49;100.00;67280.06;4967348;28;20502;-83
2022/03/22 03:27:02;;;;;;;55.85;33.67;;;;;;;4.56;100.00;67287.41;4968680;28;20580;-83
2022/03/22 03:29:28;;;;;;;52.78;31.95;;;;;;;4.45;100.00;67270.25;4977556;28;20046;-83
2022/03/22 03:31:54;;;;;;;53.63;33.45;;;;;;;4.49;100.00;67282.69;4961210;28;20175;-83
2022/03/22 03:34:20;;;;;;;52.50;32.13;;;;;;;4.45;100.00;67276.09;4971582;28;20122;-83
2022/03/22 03:36:45;;;;;;;55.13;32.25;;;;;;;4.51;100.00;67279.66;4969368;28;20123;-83
2022/03/22 03:39:11;;;;;;;53.88;32.67;;;;;;;4.52;100.00;67283.44;4969058;28;20051;-83
2022/03/22 03:41:53;;;;;;;52.97;32.05;;;;;;;4.55;100.00;67286.28;4972958;28;20051;-84
2022/03/22 03:47:04;;;;;;;53.08;31.85;;;;;;;4.56;100.00;67282.69;4972267;28;20436;-83
2022/03/22 03:49:35;;;;;;;50.05;31.00;;;;;;;4.60;100.00;67289.25;4954829;28;20042;-84
2022/03/22 03:52:02;;;;;;;47.03;27.45;;;;;;;4.61;100.00;67293.59;4969568;28;20453;-83
2022/03/22 03:54:28;;;;;;;49.47;29.70;;;;;;;4.71;100.00;67299.63;4953402;28;20663;-83
2022/03/22 03:56:53;;;;;;;51.30;28.98;;;;;;;4.81;100.00;67309.78;4970809;28;20050;-83
2022/03/22 03:59:18;;;;;;;50.28;28.88;;;;;;;4.80;100.00;67308.66;4969561;28;20061;-83
2022/03/22 04:01:44;;;;;;;46.97;28.85;;;;;;;4.67;100.00;67297.75;4972953;28;20494;-83
2022/03/22 04:04:10;;;;;;;49.63;29.83;;;;;;;4.63;100.00;67290.00;4969365;28;20047;-83
2022/03/22 04:06:35;;;;;;;47.95;30.45;;;;;;;4.73;100.00;67311.88;4969701;28;20743;-84
2022/03/22 04:09:01;;;;;;;48.95;29.42;;;;;;;4.67;100.00;67300.38;4970270;28;20149;-84
2022/03/22 04:11:26;;;;;;;50.10;30.10;;;;;;;4.61;100.00;67288.34;4971461;28;20070;-83
2022/03/22 04:13:51;;;;;;;45.45;26.23;;;;;;;4.53;100.00;67285.13;4971261;28;20081;-83
2022/03/22 04:16:17;;;;;;;47.22;30.50;;;;;;;4.55;100.00;67281.00;4971690;28;20051;-84
2022/03/22 04:18:42;;;;;;;49.05;30.52;;;;;;;4.53;100.00;67281.94;4974262;28;20062;-83
2022/03/22 04:21:08;;;;;;;52.45;31.63;;;;;;;4.48;100.00;67273.66;4971400;28;20571;-83
2022/03/22 04:23:33;;;;;;;49.03;30.05;;;;;;;4.41;100.00;67265.75;4969305;28;20489;-84
2022/03/22 04:25:59;;;;;;;49.05;29.52;;;;;;;4.40;100.00;67264.63;4956396;28;20606;-83
2022/03/22 04:33:52;;;;;;;45.47;29.05;;;;;;;4.38;100.00;67262.38;4979348;28;20053;-84
2022/03/22 04:36:18;;;;;;;46.67;28.15;;;;;;;4.34;100.00;67263.13;4971277;28;20043;-84
2022/03/22 04:38:44;;;;;;;46.88;26.58;;;;;;;4.37;100.00;67266.50;4970418;28;20042;-84
2022/03/22 04:41:09;;;;;;;45.42;27.17;;;;;;;4.27;100.00;67251.06;4971000;28;20138;-84
2022/03/22 04:43:34;;;;;;;41.85;27.50;;;;;;;4.38;100.00;67270.28;4967496;28;20089;-84
2022/03/22 04:46:01;;;;;;;44.60;26.20;;;;;;;4.31;100.00;67260.28;4963278;28;20086;-84
2022/03/22 04:48:27;;;;;;;44.67;25.90;;;;;;;4.24;100.00;67258.22;4969208;28;20058;-84
2022/03/22 04:56:43;;;;;;;41.58;24.65;;;;;;;4.22;100.00;67248.06;4966161;28;20035;-84
2022/03/22 04:59:05;;;;;;;41.53;26.55;;;;;;;4.37;100.00;67267.06;4966025;28;20401;-84
2022/03/22 05:01:30;;;;;;;38.72;25.90;;;;;;;4.46;100.00;67276.66;4968344;28;20129;-83
2022/03/22 05:03:56;;;;;;;39.70;24.10;;;;;;;4.41;100.00;67265.75;4949719;28;20055;-84
2022/03/22 05:06:26;;;;;;;42.92;22.95;;;;;;;4.37;100.00;67261.78;4970340;28;20046;-83
2022/03/22 05:08:55;;;;;;;42.00;25.77;;;;;;;4.43;100.00;67271.22;4968667;28;20047;-83
2022/03/22 05:11:21;;;;;;;39.53;25.27;;;;;;;4.48;100.00;67281.56;4962924;28;20050;-83
2022/03/22 05:13:47;;;;;;;45.83;27.05;;;;;;;4.48;100.00;67279.47;4971457;28;20101;-83
2022/03/22 05:16:12;;;;;;;40.83;26.13;;;;;;;4.52;100.00;67286.66;4970245;28;20050;-83
2022/03/22 05:18:38;;;;;;;45.05;26.33;;;;;;;4.52;100.00;67280.81;4953022;28;20142;-82
2022/03/22 05:21:04;;;;;;;40.35;25.17;;;;;;;4.47;100.00;67281.00;4970380;28;20077;-82
2022/03/22 05:23:31;;;;;;;45.58;26.40;;;;;;;4.44;100.00;67272.34;4966707;28;20159;-82
2022/03/22 05:25:56;;;;;;;39.55;25.42;;;;;;;4.50;100.00;67281.19;4966364;28;20047;-82
2022/03/22 05:28:22;;;;;;;39.90;25.73;;;;;;;4.47;100.00;67272.53;4967561;28;20406;-83
2022/03/22 05:30:47;;;;;;;43.53;25.17;;;;;;;4.44;100.00;67274.41;4974905;28;20074;-83
2022/03/22 05:33:13;;;;;;;39.13;24.85;;;;;;;4.40;100.00;67267.84;4968395;28;20078;-82
2022/03/22 05:35:38;;;;;;;43.42;27.33;;;;;;;4.42;100.00;67272.16;4964796;28;20069;-82
2022/03/22 05:38:03;;;;;;;44.17;27.00;;;;;;;4.39;100.00;67264.06;4966136;28;20483;-82
2022/03/22 05:40:29;;;;;;;47.75;26.70;;;;;;;4.35;100.00;67264.25;4971589;28;20457;-82
2022/03/22 05:42:54;;;;;;;43.20;25.08;;;;;;;4.29;100.00;67258.03;4956522;28;20042;-82
2022/03/22 05:45:20;;;;;;;41.67;23.83;;;;;;;4.30;100.00;67259.72;4967926;28;20034;-82
2022/03/22 05:47:45;;;;;;;42.22;26.67;;;;;;;4.37;100.00;67266.50;4978787;28;20049;-83
2022/03/22 05:50:11;;;;;;;41.75;27.35;;;;;;;4.44;100.00;67274.97;4974170;28;20050;-83
2022/03/22 05:52:44;;;;;;;45.20;26.95;;;;;;;4.41;100.00;67265.75;4969314;28;20398;-82
2022/03/22 05:55:10;;;;;;;39.70;24.80;;;;;;;4.42;100.00;67272.72;4969363;28;20521;-82
2022/03/22 05:57:36;;;;;;;43.17;25.33;;;;;;;4.35;100.00;67264.81;4971399;28;20676;-82
2022/03/22 06:00:02;;;;;;;40.90;25.33;;;;;;;4.37;100.00;67266.50;4968784;28;20039;-82
2022/03/22 06:02:27;;;;;;;43.90;25.40;;;;;;;;;;4971097;28;20039;-83
2022/03/22 06:04:52;;;;;;;41.72;26.08;;;;;;;4.40;100.00;67272.53;4969139;28;20506;-83
2022/03/22 06:07:19;;;;;;;40.63;25.15;;;;;;;4.38;100.00;67265.56;4969129;28;20042;-83
2022/03/22 06:09:47;;;;;;;42.10;25.52;;;;;;;4.38;100.00;67267.63;4970859;28;20039;-83
2022/03/22 06:12:13;;;;;;;39.05;25.17;;;;;;;4.40;100.00;67264.63;4967519;28;20050;-83
2022/03/22 06:14:38;;;;;;;42.38;28.17;;;;;;;4.39;100.00;67266.69;4967262;28;20030;-82
2022/03/22 06:17:04;;;;;;;42.50;26.50;;;;;;;4.43;100.00;67270.63;4955690;28;20590;-82
2022/03/22 06:19:29;;;;;;;40.90;25.95;;;;;;;4.44;100.00;67271.78;4968808;28;20035;-83
2022/03/22 06:21:55;;;;;;;41.95;25.23;;;;;;;4.45;100.00;67270.25;4971263;28;20081;-83
2022/03/22 06:24:20;;;;;;;41.75;26.10;;;;;;;4.48;100.00;67276.28;4967725;28;20125;-83
2022/03/22 06:26:46;;;;;;;41.63;27.23;;;;;;;4.52;100.00;67284.00;4969067;28;20430;-83
2022/03/22 06:29:11;;;;;;;42.05;26.33;;;;;;;4.66;100.00;67299.25;4950473;28;20059;-85
2022/03/22 06:31:37;;;;;;;41.00;24.33;;;;;;;4.73;100.00;67301.31;4968881;28;20046;-85
2022/03/22 06:34:02;;;;;;;41.20;25.15;;;;;;;4.80;100.00;67308.66;4965215;28;20050;-84
2022/03/22 06:36:28;;;;;;;42.05;25.25;;;;;;;4.90;100.00;67325.78;4968722;28;20058;-85
2022/03/22 06:38:54;;;;;;;38.08;25.05;;;;;;;4.94;100.00;67329.72;4950186;28;20043;-85
2022/03/22 06:41:19;;;;;;;42.78;25.17;;;;;;;5.04;100.00;67337.84;4966303;28;20098;-82
2022/03/22 06:43:44;;;;;;;38.20;22.60;;;;;;;5.20;100.00;67358.53;4949554;28;20046;-83
2022/03/22 06:46:10;;;;;;;40.25;23.95;;;;;;;5.30;100.00;67366.66;4965647;28;20097;-85
2022/03/22 06:48:36;;;;;;;41.35;24.55;;;;;;;5.45;100.00;67386.22;4952992;28;20043;-84
2022/03/22 06:51:01;;;;;;;37.78;25.15;;;;;;;5.64;100.00;67404.50;4968625;28;20641;-85
2022/03/22 06:53:26;;;;;;;44.92;25.38;;;;;;;5.76;99.98;67422.78;4968015;28;20105;-81
2022/03/22 06:55:52;;;;;;;37.95;24.90;;;;;;;5.89;99.01;67437.47;4951864;28;20077;-84
2022/03/22 06:58:22;;;;;;;42.25;24.77;;;;;;;5.98;98.65;67442.38;4967518;28;20054;-84
2022/03/22 07:00:54;;;;;;;41.08;24.63;;;;;;;6.16;98.35;67461.59;4959429;28;20043;-84
2022/03/22 07:03:20;;;;;;;36.53;22.73;;;;;;;6.26;97.63;67470.25;4956555;28;20085;-85
2022/03/22 07:05:45;;;;;;;36.22;20.55;;;;;;;6.31;99.40;67481.19;4972702;28;20426;-83
2022/03/22 07:08:12;;;;;;;44.97;25.70;;;;;;;6.40;99.60;67488.72;4953714;28;20050;-85
2022/03/22 07:10:37;;;;;;;33.97;21.45;;;;;;;6.55;99.22;67502.47;4970447;28;20078;-82
2022/03/22 07:13:08;;;;;;;39.97;22.60;;;;;;;6.73;98.78;67524.91;4971690;28;20136;-85
2022/03/22 07:15:35;;;;;;;36.95;23.98;;;;;;;6.88;97.76;67544.53;4975838;28;20038;-84
2022/03/22 07:18:02;;;;;;;39.15;23.95;;;;;;;7.04;96.09;67556.22;4975384;28;20578;-83
2022/03/22 07:20:28;;;;;;;42.60;24.48;;;;;;;7.26;94.05;67583.75;4979211;28;20062;-85
2022/03/22 07:22:54;;;;;;;38.60;21.50;;;;;;;7.45;89.26;67602.63;4981989;28;20430;-84
2022/03/22 07:25:19;;;;;;;38.35;23.58;;;;;;;7.63;89.04;67625.06;4974936;28;20090;-84
2022/03/22 07:27:45;;;;;;;33.90;23.73;;;;;;;7.74;87.53;67633.75;4972995;28;20490;-85
2022/03/22 07:30:12;;;;;;;36.50;22.90;;;;;;;7.91;86.73;67652.97;4973157;28;20537;-83
2022/03/22 07:32:38;;;;;;;35.80;22.90;;;;;;;8.10;85.82;67676.59;4972592;28;20082;-85
2022/03/22 07:35:04;;;;;;;32.80;21.35;;;;;;;;;;4959160;28;20086;-84
2022/03/22 07:37:29;;;;;;;32.92;21.92;;;;;;;8.32;84.06;67698.31;4976948;28;20071;-84
2022/03/22 07:39:57;;;;;;;33.88;23.20;;;;;;;;;;4978326;28;20494;-84
2022/03/22 07:42:24;;;;;;;33.70;22.02;;;;;;;;;;4980373;28;20150;-85
2022/03/22 07:44:49;;;;;;;36.58;22.50;;;;;;;8.60;81.93;67729.47;4953651;28;20113;-83
2022/03/22 07:47:15;;;;;;;32.33;21.00;;;;;;;8.70;81.07;67740.81;4973776;28;20123;-84
2022/03/22 07:55:10;;;;;;;32.03;20.42;;;;;;;9.07;80.31;67781.59;4963291;28;20058;-85
2022/03/22 07:57:35;;;;;;;31.55;21.23;;;;;;;;;;4969311;28;20050;-85
2022/03/22 08:00:01;;;;;;;30.50;21.35;;;;;;;9.24;79.16;67800.31;4972162;28;20049;-85
2022/03/22 08:02:27;;;;;;;31.40;19.98;;;;;;;9.31;77.82;67807.66;4969657;28;20438;-85
2022/03/22 08:04:53;;;;;;;30.17;20.98;;;;;;;9.36;76.69;67813.91;4954594;28;20035;-85
2022/03/22 08:07:18;;;;;;;31.38;20.95;;;;;;;;;;4970686;28;20053;-84
2022/03/22 08:09:45;;;;;;;29.73;19.15;;;;;;;9.61;75.78;67844.34;4971338;28;20589;-86
2022/03/22 08:12:11;;;;;;;28.00;19.88;;;;;;;9.77;75.51;67861.34;4954026;28;20035;-84
2022/03/22 08:14:38;;;;;;;29.02;20.25;;;;;;;9.79;75.58;67860.97;4967624;28;20050;-83
2022/03/22 08:17:03;;;;;;;29.90;20.52;;;;;;;9.85;74.87;67867.75;4948226;28;20034;-84
2022/03/22 08:19:29;;;;;;;30.83;18.38;;;;;;;9.97;73.90;67875.50;4955009;28;20051;-84
2022/03/22 08:21:54;;;;;;;27.33;17.55;;;;;;;10.12;73.20;67898.38;4956298;28;20098;-82
2022/03/22 08:24:20;;;;;;;29.63;19.13;;;;;;;10.22;71.91;67909.16;4947033;28;20031;-85
2022/03/22 08:26:45;;;;;;;26.55;18.08;;;;;;;10.42;68.51;67926.00;4953106;28;20050;-84
2022/03/22 08:29:10;;;;;;;25.25;15.38;;;;;;;;;;4969236;28;20509;-82
2022/03/22 08:31:36;;;;;;;26.13;17.88;;;;;;;10.65;67.41;67956.28;4954673;28;20122;-85
2022/03/22 08:34:03;;;;;;;25.75;16.02;;;;;;;10.85;65.01;67973.66;4969876;28;20494;-84
2022/03/22 08:36:28;;;;;;;23.73;16.05;;;;;;;10.96;63.41;67994.13;4969036;28;20643;-85
2022/03/22 08:38:54;;;;;;;24.60;15.73;;;;;;;;;;4952868;28;20038;-85
2022/03/22 08:41:19;;;;;;;25.50;16.83;;;;;;;11.07;62.34;68003.94;4969619;28;20449;-81
2022/03/22 08:43:45;;;;;;;21.88;14.57;;;;;;;;;;4955001;28;20065;-85
2022/03/22 08:46:11;;;;;;;24.60;15.32;;;;;;;;;;4955337;28;20066;-85
2022/03/22 08:48:37;;;;;;;21.80;11.90;;;;;;;11.46;58.43;68047.09;4967888;28;20120;-85
2022/03/22 08:51:03;;;;;;;26.45;15.30;;;;;;;;;;4957038;28;20111;-85
2022/03/22 08:53:30;;;;;;;25.25;14.55;;;;;;;;;;4948913;28;20067;-85
2022/03/22 08:55:56;;;;;;;23.30;15.73;;;;;;;;;;4944038;28;20051;-85
2022/03/22 08:58:22;;;;;;;27.58;15.50;;;;;;;11.81;58.30;68085.72;4973586;28;20565;-85
2022/03/22 09:00:48;;;;;;;23.38;15.88;;;;;;;;;;4967997;28;20066;-85
2022/03/22 09:03:14;;;;;;;23.30;14.98;;;;;;;11.88;54.86;68088.38;4951048;28;20035;-84
2022/03/22 09:08:24;;;;;;;20.80;14.50;;;;;;;12.11;55.13;68119.25;4970445;28;20104;-84
2022/03/22 09:10:51;;;;;;;21.48;14.55;;;;;;;;;;4952003;28;20046;-84
2022/03/22 09:13:18;;;;;;;22.92;14.30;;;;;;;12.36;54.06;68149.75;4951898;28;20045;-83
2022/03/22 09:15:44;;;;;;;20.77;12.38;;;;;;;12.44;52.72;68155.06;4968919;28;20030;-85
2022/03/22 09:18:16;;;;;;;24.70;13.27;;;;;;;;;;4967560;28;20055;-85
2022/03/22 09:20:44;;;;;;;22.40;12.82;;;;;;;12.56;53.58;68168.69;4965205;28;20077;-85
2022/03/22 09:23:10;;;;;;;19.83;12.57;;;;;;;;;;4970205;28;20047;-85
2022/03/22 09:25:36;;;;;;;22.15;13.45;;;;;;;12.68;52.63;68181.75;4950767;28;20043;-84
2022/03/22 09:28:05;;;;;;;20.65;13.23;;;;;;;12.85;51.76;68193.06;4968874;28;20051;-84
2022/03/22 09:30:32;;;;;;;19.63;12.20;;;;;;;12.79;51.04;68194.25;4953275;28;20603;-83
2022/03/22 09:32:57;;;;;;;21.55;12.10;;;;;;;13.00;50.62;68217.56;4956465;28;20070;-84
2022/03/22 09:35:23;;;;;;;23.33;13.63;;;;;;;12.91;49.76;68207.34;4967968;28;20136;-84
2022/03/22 09:37:49;;;;;;;21.25;14.00;;;;;;;13.01;50.00;68218.72;4967919;28;20046;-85
2022/03/22 09:40:15;;;;;;;21.95;13.80;;;;;;;;;;4952905;28;20039;-84
2022/03/22 09:42:45;;;;;;;22.10;14.23;;;;;;;13.28;50.30;68249.44;4950918;28;20560;-85
2022/03/22 09:45:11;;;;;;;23.80;14.05;;;;;;;;;;4952514;28;20039;-85
2022/03/22 09:47:37;;;;;;;23.35;15.43;;;;;;;;;;4967737;28;20049;-85
2022/03/22 09:50:06;;;;;;;21.35;15.02;;;;;;;13.27;49.60;68242.38;4966520;28;20047;-84
2022/03/22 09:52:32;;;;;;;21.73;14.43;;;;;;;;;;4953766;28;20158;-85
2022/03/22 09:54:57;;;;;;;18.85;11.93;;;;;;;13.45;50.07;68267.63;4968466;28;20157;-84
2022/03/22 09:57:23;;;;;;;21.33;13.80;;;;;;;13.41;48.48;68263.09;4969053;28;20047;-85
2022/03/22 09:59:48;;;;;;;22.88;14.60;;;;;;;13.42;50.56;68264.22;4965914;28;20602;-83
2022/03/22 10:02:13;;;;;;;22.23;14.55;;;;;;;;;;4967987;28;20051;-84
2022/03/22 10:04:40;;;;;;;22.95;13.35;;;;;;;13.60;48.76;68284.69;4969207;28;20105;-85
2022/03/22 10:07:07;;;;;;;21.92;13.63;;;;;;;13.68;50.38;68293.78;4972161;28;20045;-86
2022/03/22 10:09:39;;;;;;;20.80;12.40;;;;;;;13.79;47.92;68305.19;4954201;28;20046;-84
2022/03/22 10:12:07;;;;;;;20.58;11.88;;;;;;;13.90;48.99;68318.25;4952362;28;20053;-85
2022/03/22 10:14:38;;;;;;;21.45;14.23;;;;;;;13.91;50.34;68313.47;4970586;28;20581;-84
2022/03/22 10:17:15;;;;;;;24.35;14.13;;;;;;;13.94;51.04;68314.22;4971079;28;20748;-85
2022/03/22 10:19:51;;;;;;;23.52;13.07;;;;;;;14.15;48.97;68345.56;4924318;28;20137;-84
2022/03/22 10:22:22;;;;;;;19.67;12.57;;;;;;;;;;4970967;28;20046;-84
2022/03/22 10:24:51;;;;;;;24.38;11.80;;;;;;;;;;4951829;28;20137;-84
2022/03/22 10:27:24;;;;;;;24.25;13.30;;;;;;;;;;4958580;28;20039;-85
2022/03/22 10:29:50;;;;;;;23.27;13.75;;;;;;;14.34;48.51;68366.63;4956235;28;20078;-84
2022/03/22 10:32:17;;;;;;;19.45;11.63;;;;;;;14.44;45.68;68373.22;4969863;28;20528;-85
2022/03/22 10:34:42;;;;;;;21.30;13.88;;;;;;;;;;4969450;28;20050;-82
2022/03/22 10:37:08;;;;;;;22.13;13.13;;;;;;;;;;4951730;28;20043;-83
2022/03/22 10:39:41;;;;;;;18.42;12.77;;;;;;;;;;4970453;28;20058;-85
2022/03/22 10:42:08;;;;;;;19.27;12.75;;;;;;;;;;4966217;28;20046;-84
2022/03/22 10:44:34;;;;;;;21.55;13.73;;;;;;;;;;4970212;28;20130;-85
2022/03/22 10:47:02;;;;;;;21.50;14.23;;;;;;;15.03;47.73;68432.78;4973091;28;20043;-86
2022/03/22 10:49:27;;;;;;;20.20;13.55;;;;;;;;;;4952049;28;20137;-83
2022/03/22 10:51:53;;;;;;;21.98;13.02;;;;;;;;;;4976635;28;20129;-85
2022/03/22 10:54:20;;;;;;;20.87;12.90;;;;;;;15.38;48.13;68477.44;4948735;28;20170;-85
2022/03/22 10:56:54;;;;;;;20.20;12.70;;;;;;;15.64;44.28;68506.50;4972601;28;20048;-85
2022/03/22 10:59:23;;;;;;;20.38;13.75;;;;;;;15.70;45.87;68520.81;4969120;28;20049;-84
2022/03/22 11:01:50;;;;;;;20.48;12.77;;;;;;;15.68;42.94;68511.06;4973284;28;20043;-85
2022/03/22 11:04:16;;;;;;;23.70;13.60;;;;;;;15.70;43.38;68513.34;4971962;28;20043;-85
2022/03/22 11:06:42;;;;;;;20.55;13.93;;;;;;;;;;4954318;28;20042;-85
2022/03/22 11:09:09;;;;;;;19.10;14.13;;;;;;;15.72;44.30;68515.63;4971658;28;20050;-85
2022/03/22 11:11:35;;;;;;;19.95;13.27;;;;;;;15.87;42.21;68532.16;4969667;28;20066;-84
2022/03/22 11:14:01;;;;;;;21.60;13.65;;;;;;;16.05;46.43;68548.84;4969831;28;20034;-85
2022/03/22 11:16:29;;;;;;;23.65;14.05;;;;;;;16.28;47.27;68574.47;4974428;28;20042;-86
2022/03/22 11:19:01;;;;;;;21.10;12.95;;;;;;;;;;4975671;28;20049;-84
2022/03/22 11:21:30;;;;;;;21.02;14.05;;;;;;;16.42;44.39;68593.69;4974190;28;20105;-84
2022/03/22 11:24:07;;;;;;;20.38;13.82;;;;;;;16.45;46.59;68597.09;4970061;28;20053;-86
2022/03/22 11:26:55;;;;;;;22.23;15.70;;;;;;;16.41;46.47;68592.56;4970950;28;20074;-83
2022/03/22 11:29:25;;;;;;;21.10;13.75;;;;;;;16.77;48.70;68629.78;4954879;28;20518;-85
2022/03/22 11:34:35;;;;;;;20.55;14.52;;;;;;;;;;4967042;28;20131;-86
2022/03/22 11:37:01;;;;;;;23.98;14.48;;;;;;;16.95;46.70;68651.88;4960498;28;20125;-86
2022/03/22 11:42:16;;;;;;;18.15;11.48;;;;;;;17.26;40.65;68687.25;4972076;28;20496;-83
2022/03/22 11:44:42;;;;;;;22.23;12.13;;;;;;;17.43;43.69;68700.66;4971790;28;20074;-85
2022/03/22 11:47:14;;;;;;;20.48;12.60;;;;;;;17.53;41.62;68716.91;4955483;28;20479;-85
2022/03/22 11:49:47;;;;;;;22.02;14.02;;;;;;;17.36;40.42;68698.06;4964180;28;20498;-85
2022/03/22 11:52:12;;;;;;;20.48;13.23;;;;;;;;;;4946705;28;20058;-85
2022/03/22 11:54:38;;;;;;;19.92;13.77;;;;;;;17.34;44.65;68701.72;4968088;28;20047;-86
2022/03/22 11:57:05;;;;;;;21.17;14.05;;;;;;;;;;4962357;28;20414;-85
2022/03/22 11:59:41;;;;;;;20.58;13.55;;;;;;;;;;4968072;28;20117;-84
2022/03/22 12:02:13;;;;;;;23.65;14.10;;;;;;;17.87;41.35;68751.91;4955680;28;20039;-82
2022/03/22 12:04:48;;;;;;;22.45;14.30;;;;;;;17.98;41.84;68767.72;4967882;28;20106;-84
2022/03/22 12:07:29;;;;;;;25.08;13.90;;;;;;;18.09;42.36;68779.69;4954699;28;20045;-84
2022/03/22 12:10:12;;;;;;;20.15;12.20;;;;;;;18.26;43.32;68798.53;4982768;28;20045;-83
2022/03/22 12:12:40;;;;;;;22.08;11.75;;;;;;;18.59;42.22;68832.38;4950549;28;20282;-85
2022/03/22 12:15:08;;;;;;;22.80;12.98;;;;;;;18.49;42.20;68824.22;4971905;28;20046;-86
2022/03/22 12:17:34;;;;;;;20.13;13.55;;;;;;;18.57;38.58;68832.78;4961852;28;20502;-86
2022/03/22 12:20:03;;;;;;;19.05;11.55;;;;;;;18.58;42.51;68834.47;4969462;28;20046;-84
2022/03/22 12:22:29;;;;;;;;;;;;;;;18.59;40.48;68829.69;4970003;28;20702;-85